createdAt,value
2019-05-26T00:00:19.265Z,8.00
2019-05-26T00:01:19.269Z,8.00
2019-05-26T00:02:19.245Z,8.00
2019-05-26T00:03:19.245Z,8.00
2019-05-26T00:04:19.274Z,8.00
2019-05-26T00:05:20.185Z,8.00
2019-05-26T00:06:19.204Z,8.00
2019-05-26T00:07:30.194Z,8.00
2019-05-26T00:08:20.189Z,8.00
2019-05-26T00:09:19.196Z,8.00
2019-05-26T00:10:19.514Z,8.00
2019-05-26T00:11:19.164Z,8.00
2019-05-26T00:12:19.146Z,8.00
2019-05-26T00:13:19.133Z,8.00
2019-05-26T00:14:19.149Z,8.00
2019-05-26T00:15:19.965Z,8.00
2019-05-26T00:16:19.133Z,8.00
2019-05-26T00:17:19.094Z,8.00
2019-05-26T00:18:19.094Z,8.00
2019-05-26T00:19:19.064Z,20.00
2019-05-26T00:20:19.566Z,12.00
2019-05-26T00:21:19.053Z,12.00
2019-05-26T00:22:19.355Z,12.00
2019-05-26T00:23:19.563Z,12.00
2019-05-26T00:24:19.022Z,12.00
2019-05-26T00:25:19.033Z,12.00
2019-05-26T00:26:19.003Z,12.00
2019-05-26T00:27:18.984Z,12.00
2019-05-26T00:28:19.078Z,12.00
2019-05-26T00:29:18.963Z,12.00
2019-05-26T00:30:18.963Z,12.00
2019-05-26T00:31:18.943Z,12.00
2019-05-26T00:32:18.933Z,12.00
2019-05-26T00:33:18.930Z,12.00
2019-05-26T00:34:19.862Z,12.00
2019-05-26T00:35:18.894Z,12.00
2019-05-26T00:36:18.897Z,12.00
2019-05-26T00:37:18.882Z,12.00
2019-05-26T00:38:19.538Z,12.00
2019-05-26T00:39:18.934Z,12.00
2019-05-26T00:40:19.536Z,12.00
2019-05-26T00:41:18.849Z,12.00
2019-05-26T00:42:18.821Z,12.00
2019-05-26T00:43:18.812Z,12.00
2019-05-26T00:44:18.802Z,12.00
2019-05-26T00:45:18.792Z,12.00
2019-05-26T00:46:19.113Z,12.00
2019-05-26T00:47:18.784Z,12.00
2019-05-26T00:48:18.785Z,8.00
2019-05-26T00:49:18.759Z,8.00
2019-05-26T00:50:18.742Z,12.00
2019-05-26T00:51:18.773Z,12.00
2019-05-26T00:52:18.761Z,12.00
2019-05-26T00:53:18.989Z,12.00
2019-05-26T00:54:18.701Z,12.00
2019-05-26T00:55:18.690Z,12.00
2019-05-26T00:56:18.680Z,12.00
2019-05-26T00:57:18.741Z,12.00
2019-05-26T00:58:18.701Z,12.00
2019-05-26T00:59:18.642Z,12.00
2019-05-26T01:00:18.928Z,12.00
2019-05-26T01:01:19.158Z,12.00
2019-05-26T01:02:18.611Z,12.00
2019-05-26T01:03:18.600Z,12.00
2019-05-26T01:04:19.430Z,12.00
2019-05-26T01:05:18.621Z,12.00
2019-05-26T01:06:18.623Z,12.00
2019-05-26T01:07:18.851Z,12.00
2019-05-26T01:08:18.547Z,12.00
2019-05-26T01:09:18.540Z,12.00
2019-05-26T01:10:18.580Z,12.00
2019-05-26T01:11:18.530Z,12.00
2019-05-26T01:12:18.509Z,12.00
2019-05-26T01:13:18.490Z,12.00
2019-05-26T01:14:18.771Z,12.00
2019-05-26T01:15:18.470Z,12.00
2019-05-26T01:16:18.517Z,12.00
2019-05-26T01:17:18.450Z,12.00
2019-05-26T01:18:18.448Z,12.00
2019-05-26T01:19:18.442Z,12.00
2019-05-26T01:20:18.427Z,12.00
2019-05-26T01:21:19.497Z,12.00
2019-05-26T01:22:18.458Z,12.00
2019-05-26T01:23:18.402Z,12.00
2019-05-26T01:24:18.380Z,12.00
2019-05-26T01:25:18.372Z,12.00
2019-05-26T01:26:18.370Z,12.00
2019-05-26T01:27:18.353Z,12.00
2019-05-26T01:28:18.680Z,12.00
2019-05-26T01:29:18.337Z,12.00
2019-05-26T01:30:18.328Z,12.00
2019-05-26T01:31:18.309Z,12.00
2019-05-26T01:32:21.238Z,12.00
2019-05-26T01:33:18.355Z,12.00
2019-05-26T01:34:18.339Z,12.00
2019-05-26T01:35:18.748Z,12.00
2019-05-26T01:36:18.757Z,12.00
2019-05-26T01:37:18.298Z,12.00
2019-05-26T01:38:23.789Z,12.00
2019-05-26T01:39:19.318Z,12.00
2019-05-26T01:40:18.218Z,12.00
2019-05-26T01:41:18.198Z,12.00
2019-05-26T01:42:18.199Z,12.00
2019-05-26T01:43:18.185Z,12.00
2019-05-26T01:44:18.177Z,12.00
2019-05-26T01:45:18.196Z,12.00
2019-05-26T01:46:18.148Z,12.00
2019-05-26T01:47:20.575Z,12.00
2019-05-26T01:48:18.137Z,12.00
2019-05-26T01:49:18.117Z,12.00
2019-05-26T01:50:18.114Z,12.00
2019-05-26T01:51:18.136Z,12.00
2019-05-26T01:52:18.085Z,12.00
2019-05-26T01:53:18.085Z,12.00
2019-05-26T01:54:18.346Z,12.00
2019-05-26T01:55:18.056Z,12.00
2019-05-26T01:56:18.047Z,12.00
2019-05-26T01:57:18.537Z,12.00
2019-05-26T01:58:18.078Z,12.00
2019-05-26T01:59:18.025Z,12.00
2019-05-26T02:01:40.028Z,12.00
2019-05-26T02:02:39.928Z,12.00
2019-05-26T02:03:39.908Z,12.00
2019-05-26T02:04:39.942Z,12.00
2019-05-26T02:05:39.936Z,12.00
2019-05-26T02:06:39.887Z,12.00
2019-05-26T02:07:39.911Z,12.00
2019-05-26T02:08:40.044Z,12.00
2019-05-26T02:09:39.877Z,12.00
2019-05-26T02:10:40.567Z,12.00
2019-05-26T02:11:39.826Z,12.00
2019-05-26T02:12:39.886Z,12.00
2019-05-26T02:13:39.863Z,12.00
2019-05-26T02:14:39.793Z,12.00
2019-05-26T02:15:39.786Z,12.00
2019-05-26T02:16:39.781Z,12.00
2019-05-26T02:17:39.788Z,12.00
2019-05-26T02:18:39.769Z,12.00
2019-05-26T02:19:39.805Z,12.00
2019-05-26T02:20:39.739Z,12.00
2019-05-26T02:21:39.715Z,12.00
2019-05-26T02:22:39.705Z,12.00
2019-05-26T02:23:39.713Z,12.00
2019-05-26T02:24:39.687Z,12.00
2019-05-26T02:25:39.725Z,12.00
2019-05-26T02:26:39.666Z,12.00
2019-05-26T02:27:39.654Z,12.00
2019-05-26T02:28:39.645Z,8.00
2019-05-26T02:29:39.667Z,8.00
2019-05-26T02:30:39.667Z,8.00
2019-05-26T02:31:39.655Z,8.00
2019-05-26T02:32:39.604Z,8.00
2019-05-26T02:33:39.644Z,8.00
2019-05-26T02:34:39.587Z,8.00
2019-05-26T02:35:39.586Z,8.00
2019-05-26T02:36:39.572Z,8.00
2019-05-26T02:37:40.139Z,8.00
2019-05-26T02:38:57.440Z,8.00
2019-05-26T02:39:40.554Z,8.00
2019-05-26T02:40:39.542Z,12.00
2019-05-26T02:41:39.513Z,12.00
2019-05-26T02:42:39.499Z,12.00
2019-05-26T02:43:39.523Z,12.00
2019-05-26T02:44:39.472Z,12.00
2019-05-26T02:45:39.478Z,12.00
2019-05-26T02:46:39.453Z,12.00
2019-05-26T02:47:39.456Z,12.00
2019-05-26T02:48:39.438Z,12.00
2019-05-26T02:49:39.482Z,16.00
2019-05-26T02:50:39.417Z,12.00
2019-05-26T02:51:39.422Z,16.00
2019-05-26T02:52:39.403Z,16.00
2019-05-26T02:53:39.389Z,12.00
2019-05-26T02:54:39.372Z,12.00
2019-05-26T02:55:39.875Z,16.00
2019-05-26T02:56:40.246Z,12.00
2019-05-26T02:57:39.352Z,16.00
2019-05-26T02:58:39.329Z,20.00
2019-05-26T02:59:39.320Z,20.00
2019-05-26T03:00:39.313Z,20.00
2019-05-26T03:01:58.234Z,24.00
2019-05-26T03:02:40.283Z,24.00
2019-05-26T03:03:39.296Z,28.00
2019-05-26T03:04:39.281Z,32.00
2019-05-26T03:05:39.251Z,36.00
2019-05-26T03:06:39.247Z,40.00
2019-05-26T03:07:39.271Z,44.00
2019-05-26T03:08:39.222Z,44.00
2019-05-26T03:09:39.211Z,52.00
2019-05-26T03:10:39.213Z,56.00
2019-05-26T03:11:39.200Z,60.00
2019-05-26T03:12:39.185Z,68.00
2019-05-26T03:13:39.267Z,72.00
2019-05-26T03:14:39.161Z,80.00
2019-05-26T03:15:39.150Z,84.00
2019-05-26T03:16:39.150Z,88.00
2019-05-26T03:17:39.140Z,96.00
2019-05-26T03:18:39.120Z,108.00
2019-05-26T03:19:39.141Z,116.00
2019-05-26T03:20:39.643Z,124.00
2019-05-26T03:21:39.088Z,136.00
2019-05-26T03:22:39.079Z,144.00
2019-05-26T03:23:39.066Z,160.00
2019-05-26T03:24:39.670Z,172.00
2019-05-26T03:25:39.098Z,184.00
2019-05-26T03:26:39.037Z,200.00
2019-05-26T03:27:39.029Z,212.00
2019-05-26T03:28:39.045Z,228.00
2019-05-26T03:29:38.999Z,244.00
2019-05-26T03:30:39.007Z,260.00
2019-05-26T03:31:39.044Z,276.00
2019-05-26T03:32:39.190Z,296.00
2019-05-26T03:33:38.968Z,312.00
2019-05-26T03:34:38.949Z,332.00
2019-05-26T03:35:38.952Z,352.00
2019-05-26T03:36:38.930Z,372.00
2019-05-26T03:37:38.977Z,392.00
2019-05-26T03:38:38.909Z,412.00
2019-05-26T03:39:45.429Z,432.00
2019-05-26T03:40:39.895Z,448.00
2019-05-26T03:41:38.885Z,468.00
2019-05-26T03:42:38.870Z,484.00
2019-05-26T03:43:38.939Z,500.00
2019-05-26T03:44:38.849Z,520.00
2019-05-26T03:45:38.835Z,536.00
2019-05-26T03:46:38.828Z,560.00
2019-05-26T03:47:38.826Z,576.00
2019-05-26T03:48:38.798Z,596.00
2019-05-26T03:49:39.534Z,616.00
2019-05-26T03:50:38.838Z,640.00
2019-05-26T03:51:38.777Z,660.00
2019-05-26T03:52:38.778Z,684.00
2019-05-26T03:53:38.754Z,712.00
2019-05-26T03:54:38.771Z,744.00
2019-05-26T03:55:38.777Z,768.00
2019-05-26T03:56:38.733Z,796.00
2019-05-26T03:57:38.739Z,820.00
2019-05-26T03:58:38.704Z,844.00
2019-05-26T03:59:38.697Z,864.00
2019-05-26T04:00:38.696Z,884.00
2019-05-26T04:01:38.727Z,904.00
2019-05-26T04:02:38.656Z,928.00
2019-05-26T04:03:38.648Z,952.00
2019-05-26T04:04:38.656Z,976.00
2019-05-26T04:05:38.643Z,996.00
2019-05-26T04:06:38.615Z,1012.00
2019-05-26T04:07:39.076Z,1028.00
2019-05-26T04:08:38.604Z,1044.00
2019-05-26T04:09:38.584Z,1064.00
2019-05-26T04:10:38.574Z,1084.00
2019-05-26T04:11:38.564Z,1108.00
2019-05-26T04:12:38.565Z,1136.00
2019-05-26T04:13:38.595Z,1164.00
2019-05-26T04:14:38.525Z,1196.00
2019-05-26T04:15:38.518Z,1224.00
2019-05-26T04:16:38.512Z,1260.00
2019-05-26T04:17:38.494Z,1312.00
2019-05-26T04:18:38.497Z,1364.00
2019-05-26T04:19:39.324Z,1408.00
2019-05-26T04:20:38.464Z,1440.00
2019-05-26T04:21:38.466Z,1476.00
2019-05-26T04:22:38.443Z,1512.00
2019-05-26T04:23:38.523Z,1548.00
2019-05-26T04:24:38.561Z,1580.00
2019-05-26T04:25:38.587Z,1596.00
2019-05-26T04:26:39.213Z,1592.00
2019-05-26T04:27:38.397Z,1588.00
2019-05-26T04:28:38.401Z,1572.00
2019-05-26T04:29:39.222Z,1564.00
2019-05-26T04:30:38.362Z,1556.00
2019-05-26T04:31:38.402Z,1556.00
2019-05-26T04:32:38.342Z,1556.00
2019-05-26T04:33:38.332Z,1568.00
2019-05-26T04:34:38.314Z,1576.00
2019-05-26T04:35:38.325Z,1592.00
2019-05-26T04:36:38.298Z,1608.00
2019-05-26T04:37:38.332Z,1628.00
2019-05-26T04:38:38.282Z,1652.00
2019-05-26T04:39:38.267Z,1676.00
2019-05-26T04:40:38.267Z,1704.00
2019-05-26T04:41:38.252Z,1732.00
2019-05-26T04:42:38.240Z,1764.00
2019-05-26T04:43:38.283Z,1792.00
2019-05-26T04:44:38.221Z,1820.00
2019-05-26T04:45:38.232Z,1848.00
2019-05-26T04:46:38.191Z,1872.00
2019-05-26T04:47:38.193Z,1892.00
2019-05-26T04:48:38.188Z,1908.00
2019-05-26T04:49:38.235Z,1932.00
2019-05-26T04:50:38.171Z,1956.00
2019-05-26T04:51:38.158Z,1988.00
2019-05-26T04:52:38.141Z,2024.00
2019-05-26T04:53:38.129Z,2064.00
2019-05-26T04:54:38.611Z,2112.00
2019-05-26T04:55:38.241Z,2164.00
2019-05-26T04:56:38.632Z,2224.00
2019-05-26T04:57:38.081Z,2296.00
2019-05-26T04:58:38.085Z,2376.00
2019-05-26T04:59:38.060Z,2460.00
2019-05-26T05:00:38.049Z,2556.00
2019-05-26T05:01:38.101Z,2668.00
2019-05-26T05:02:38.040Z,2784.00
2019-05-26T05:03:38.740Z,2912.00
2019-05-26T05:04:38.009Z,3036.00
2019-05-26T05:05:37.994Z,3152.00
2019-05-26T05:06:38.002Z,3260.00
2019-05-26T05:07:38.021Z,3368.00
2019-05-26T05:08:37.968Z,3508.00
2019-05-26T05:09:38.008Z,3652.00
2019-05-26T05:10:42.170Z,3780.00
2019-05-26T05:11:37.928Z,3848.00
2019-05-26T05:12:37.966Z,3896.00
2019-05-26T05:13:37.947Z,3860.00
2019-05-26T05:14:37.910Z,3828.00
2019-05-26T05:15:37.901Z,3880.00
2019-05-26T05:16:37.879Z,3952.00
2019-05-26T05:17:37.858Z,4088.00
2019-05-26T05:18:37.860Z,4256.00
2019-05-26T05:19:37.927Z,4416.00
2019-05-26T05:20:37.838Z,4424.00
2019-05-26T05:21:37.819Z,4480.00
2019-05-26T05:22:37.816Z,4492.00
2019-05-26T05:23:37.807Z,4512.00
2019-05-26T05:24:37.787Z,4592.00
2019-05-26T05:25:37.829Z,4692.00
2019-05-26T05:26:37.787Z,4776.00
2019-05-26T05:27:37.760Z,4828.00
2019-05-26T05:28:37.757Z,4808.00
2019-05-26T05:29:37.737Z,4776.00
2019-05-26T05:30:37.735Z,4612.00
2019-05-26T05:31:37.777Z,4324.00
2019-05-26T05:32:37.708Z,3992.00
2019-05-26T05:33:37.700Z,3744.00
2019-05-26T05:34:37.692Z,3520.00
2019-05-26T05:35:37.675Z,3400.00
2019-05-26T05:36:37.697Z,3564.00
2019-05-26T05:37:37.697Z,3712.00
2019-05-26T05:38:37.655Z,3840.00
2019-05-26T05:39:37.647Z,3804.00
2019-05-26T05:40:37.690Z,3820.00
2019-05-26T05:41:37.725Z,3796.00
2019-05-26T05:42:37.609Z,3868.00
2019-05-26T05:43:37.626Z,4056.00
2019-05-26T05:44:37.589Z,4228.00
2019-05-26T05:45:37.576Z,4444.00
2019-05-26T05:46:37.566Z,4776.00
2019-05-26T05:47:37.557Z,5000.00
2019-05-26T05:48:37.544Z,5028.00
2019-05-26T05:49:37.597Z,5032.00
2019-05-26T05:50:39.261Z,5248.00
2019-05-26T05:51:37.515Z,5388.00
2019-05-26T05:52:37.509Z,5484.00
2019-05-26T05:53:37.497Z,5808.00
2019-05-26T05:54:37.483Z,5692.00
2019-05-26T05:55:37.546Z,5668.00
2019-05-26T05:56:37.455Z,5756.00
2019-05-26T05:57:37.446Z,5748.00
2019-05-26T05:58:37.435Z,5660.00
2019-05-26T05:59:37.432Z,5356.00
2019-05-26T06:00:37.415Z,5380.00
2019-05-26T06:01:37.453Z,5668.00
2019-05-26T06:02:37.399Z,5712.00
2019-05-26T06:03:37.384Z,5452.00
2019-05-26T06:04:37.375Z,5168.00
2019-05-26T06:05:37.356Z,5396.00
2019-05-26T06:06:37.369Z,5744.00
2019-05-26T06:07:37.420Z,6172.00
2019-05-26T06:08:37.325Z,6328.00
2019-05-26T06:09:37.314Z,6200.00
2019-05-26T06:10:37.314Z,5900.00
2019-05-26T06:11:37.804Z,5556.00
2019-05-26T06:12:37.289Z,5592.00
2019-05-26T06:13:37.355Z,6052.00
2019-05-26T06:14:37.267Z,6276.00
2019-05-26T06:15:37.254Z,6344.00
2019-05-26T06:16:37.262Z,5892.00
2019-05-26T06:17:37.796Z,5352.00
2019-05-26T06:18:37.214Z,4868.00
2019-05-26T06:19:37.808Z,5092.00
2019-05-26T06:20:37.205Z,5552.00
2019-05-26T06:21:37.222Z,5940.00
2019-05-26T06:22:37.183Z,6352.00
2019-05-26T06:23:37.398Z,6368.00
2019-05-26T06:24:37.903Z,6348.00
2019-05-26T06:25:37.199Z,6296.00
2019-05-26T06:26:37.133Z,6176.00
2019-05-26T06:27:37.135Z,6352.00
2019-05-26T06:28:37.121Z,6600.00
2019-05-26T06:29:37.103Z,6448.00
2019-05-26T06:30:37.093Z,7020.00
2019-05-26T06:31:37.327Z,7436.00
2019-05-26T06:32:37.072Z,7400.00
2019-05-26T06:33:37.063Z,7540.00
2019-05-26T06:34:37.054Z,7516.00
2019-05-26T06:35:37.049Z,7556.00
2019-05-26T06:36:37.034Z,6924.00
2019-05-26T06:37:37.109Z,6676.00
2019-05-26T06:38:37.014Z,6728.00
2019-05-26T06:39:37.011Z,7140.00
2019-05-26T06:40:36.991Z,6980.00
2019-05-26T06:41:36.986Z,6652.00
2019-05-26T06:42:36.967Z,6780.00
2019-05-26T06:43:37.004Z,6932.00
2019-05-26T06:44:52.454Z,6940.00
2019-05-26T06:45:37.982Z,6756.00
2019-05-26T06:46:36.922Z,6376.00
2019-05-26T06:47:37.582Z,6284.00
2019-05-26T06:48:36.903Z,6380.00
2019-05-26T06:49:36.985Z,7212.00
2019-05-26T06:50:36.891Z,7540.00
2019-05-26T06:51:36.872Z,7952.00
2019-05-26T06:52:36.873Z,8368.00
2019-05-26T06:53:37.757Z,8832.00
2019-05-26T06:54:36.844Z,9020.00
2019-05-26T06:55:36.863Z,9092.00
2019-05-26T06:56:36.852Z,9080.00
2019-05-26T06:57:36.823Z,9460.00
2019-05-26T06:58:36.803Z,9652.00
2019-05-26T06:59:36.791Z,9516.00
2019-05-26T07:00:36.783Z,9576.00
2019-05-26T07:01:36.802Z,9240.00
2019-05-26T07:02:36.767Z,9228.00
2019-05-26T07:03:36.743Z,9076.00
2019-05-26T07:04:36.734Z,9464.00
2019-05-26T07:05:36.745Z,9500.00
2019-05-26T07:06:36.734Z,9040.00
2019-05-26T07:07:36.756Z,8812.00
2019-05-26T07:08:36.692Z,8800.00
2019-05-26T07:09:36.681Z,8880.00
2019-05-26T07:10:36.679Z,8716.00
2019-05-26T07:11:53.934Z,8888.00
2019-05-26T07:12:37.722Z,9180.00
2019-05-26T07:13:36.642Z,8992.00
2019-05-26T07:14:36.642Z,9276.00
2019-05-26T07:15:36.621Z,9280.00
2019-05-26T07:16:38.472Z,9356.00
2019-05-26T07:17:36.607Z,9744.00
2019-05-26T07:18:37.421Z,10052.00
2019-05-26T07:19:36.583Z,10440.00
2019-05-26T07:20:36.572Z,10656.00
2019-05-26T07:21:36.571Z,10824.00
2019-05-26T07:22:36.542Z,10444.00
2019-05-26T07:23:36.557Z,10260.00
2019-05-26T07:24:36.582Z,10404.00
2019-05-26T07:25:36.520Z,10456.00
2019-05-26T07:26:36.533Z,10036.00
2019-05-26T07:27:36.501Z,9536.00
2019-05-26T07:28:36.482Z,9508.00
2019-05-26T07:29:36.485Z,9448.00
2019-05-26T07:30:36.561Z,9412.00
2019-05-26T07:31:36.461Z,9848.00
2019-05-26T07:32:37.291Z,10516.00
2019-05-26T07:33:36.482Z,10560.00
2019-05-26T07:34:36.431Z,10704.00
2019-05-26T07:35:43.330Z,10784.00
2019-05-26T07:36:37.317Z,9900.00
2019-05-26T07:37:36.394Z,9868.00
2019-05-26T07:38:36.377Z,10644.00
2019-05-26T07:39:36.370Z,11248.00
2019-05-26T07:40:36.373Z,11876.00
2019-05-26T07:41:36.351Z,12244.00
2019-05-26T07:42:36.381Z,12300.00
2019-05-26T07:43:36.325Z,11896.00
2019-05-26T07:44:36.316Z,11296.00
2019-05-26T07:45:36.422Z,11036.00
2019-05-26T07:46:36.291Z,11132.00
2019-05-26T07:47:36.800Z,10924.00
2019-05-26T07:48:36.420Z,10132.00
2019-05-26T07:49:36.261Z,9772.00
2019-05-26T07:50:36.271Z,9928.00
2019-05-26T07:51:36.239Z,10176.00
2019-05-26T07:52:36.241Z,10220.00
2019-05-26T07:53:36.218Z,10428.00
2019-05-26T07:54:37.061Z,10400.00
2019-05-26T07:55:36.804Z,13120.00
2019-05-26T07:56:36.190Z,13784.00
2019-05-26T07:57:36.182Z,12472.00
2019-05-26T07:58:36.227Z,12240.00
2019-05-26T07:59:36.150Z,12620.00
2019-05-26T08:00:36.286Z,13192.00
2019-05-26T08:01:36.697Z,13456.00
2019-05-26T08:02:36.657Z,13268.00
2019-05-26T08:03:36.291Z,13456.00
2019-05-26T08:04:36.100Z,13872.00
2019-05-26T08:05:36.090Z,14044.00
2019-05-26T08:06:36.121Z,13568.00
2019-05-26T08:07:36.070Z,13660.00
2019-05-26T08:08:36.078Z,13164.00
2019-05-26T08:09:36.680Z,13296.00
2019-05-26T08:10:36.693Z,12744.00
2019-05-26T08:11:36.072Z,12968.00
2019-05-26T08:12:36.695Z,13412.00
2019-05-26T08:13:36.043Z,13512.00
2019-05-26T08:14:36.008Z,13352.00
2019-05-26T08:15:36.691Z,13896.00
2019-05-26T08:16:35.983Z,14028.00
2019-05-26T08:17:36.691Z,14364.00
2019-05-26T08:18:36.480Z,13992.00
2019-05-26T08:19:35.949Z,14388.00
2019-05-26T08:20:35.931Z,14280.00
2019-05-26T08:21:35.939Z,14324.00
2019-05-26T08:22:35.919Z,14464.00
2019-05-26T08:23:35.941Z,15316.00
2019-05-26T08:24:35.940Z,13440.00
2019-05-26T08:25:35.880Z,7668.00
2019-05-26T08:26:36.584Z,15460.00
2019-05-26T08:27:35.894Z,15020.00
2019-05-26T08:28:35.850Z,14244.00
2019-05-26T08:29:35.841Z,14140.00
2019-05-26T08:30:36.584Z,14836.00
2019-05-26T08:31:35.830Z,14304.00
2019-05-26T08:32:35.810Z,14164.00
2019-05-26T08:33:35.801Z,9884.00
2019-05-26T08:34:35.791Z,14100.00
2019-05-26T08:35:35.790Z,14056.00
2019-05-26T08:36:35.829Z,12996.00
2019-05-26T08:37:35.774Z,15172.00
2019-05-26T08:38:35.920Z,15580.00
2019-05-26T08:39:35.740Z,15748.00
2019-05-26T08:40:35.731Z,16124.00
2019-05-26T08:41:35.710Z,16892.00
2019-05-26T08:42:44.104Z,16828.00
2019-05-26T08:43:36.710Z,17856.00
2019-05-26T08:44:35.719Z,18272.00
2019-05-26T08:45:35.699Z,18496.00
2019-05-26T08:46:35.672Z,17312.00
2019-05-26T08:47:35.650Z,17792.00
2019-05-26T08:48:35.851Z,17792.00
2019-05-26T08:49:35.649Z,18048.00
2019-05-26T08:50:36.142Z,18080.00
2019-05-26T08:51:35.612Z,18880.00
2019-05-26T08:52:36.594Z,12800.00
2019-05-26T08:53:35.590Z,17536.00
2019-05-26T08:54:35.647Z,17696.00
2019-05-26T08:55:35.561Z,16896.00
2019-05-26T08:56:35.572Z,17156.00
2019-05-26T08:57:35.563Z,17824.00
2019-05-26T08:58:35.538Z,18144.00
2019-05-26T08:59:35.557Z,18880.00
2019-05-26T09:00:35.559Z,19712.00
2019-05-26T09:01:36.374Z,19552.00
2019-05-26T09:02:35.531Z,12544.00
2019-05-26T09:03:35.499Z,15208.00
2019-05-26T09:04:35.474Z,18528.00
2019-05-26T09:05:35.464Z,18560.00
2019-05-26T09:06:35.511Z,19552.00
2019-05-26T09:07:35.462Z,19360.00
2019-05-26T09:08:35.431Z,17440.00
2019-05-26T09:09:35.451Z,16972.00
2019-05-26T09:10:35.424Z,18144.00
2019-05-26T09:11:35.412Z,17856.00
2019-05-26T09:12:35.456Z,13040.00
2019-05-26T09:13:35.380Z,22208.00
2019-05-26T09:14:35.400Z,20128.00
2019-05-26T09:15:35.361Z,21248.00
2019-05-26T09:16:35.431Z,26944.00
2019-05-26T09:17:35.339Z,19424.00
2019-05-26T09:18:36.171Z,19968.00
2019-05-26T09:19:35.319Z,16700.00
2019-05-26T09:20:35.841Z,16636.00
2019-05-26T09:21:35.296Z,16084.00
2019-05-26T09:22:35.289Z,14008.00
2019-05-26T09:23:35.272Z,12452.00
2019-05-26T09:24:35.302Z,10948.00
2019-05-26T09:25:35.253Z,9960.00
2019-05-26T09:26:35.241Z,9424.00
2019-05-26T09:27:35.238Z,8400.00
2019-05-26T09:28:35.240Z,8348.00
2019-05-26T09:29:35.275Z,9024.00
2019-05-26T09:30:35.413Z,9536.00
2019-05-26T09:31:35.235Z,9420.00
2019-05-26T09:32:35.181Z,9120.00
2019-05-26T09:33:35.172Z,8848.00
2019-05-26T09:34:35.291Z,8864.00
2019-05-26T09:35:35.144Z,9288.00
2019-05-26T09:36:35.171Z,9644.00
2019-05-26T09:37:35.149Z,9372.00
2019-05-26T09:38:35.991Z,8604.00
2019-05-26T09:39:35.101Z,8000.00
2019-05-26T09:40:35.107Z,7556.00
2019-05-26T09:41:35.152Z,7448.00
2019-05-26T09:42:35.152Z,7504.00
2019-05-26T09:43:35.216Z,7524.00
2019-05-26T09:44:36.684Z,7608.00
2019-05-26T09:45:35.043Z,7580.00
2019-05-26T09:46:35.045Z,7368.00
2019-05-26T09:47:35.020Z,6968.00
2019-05-26T09:48:35.132Z,6724.00
2019-05-26T09:49:34.995Z,6780.00
2019-05-26T09:50:35.006Z,6992.00
2019-05-26T09:51:35.283Z,7220.00
2019-05-26T09:52:35.098Z,7824.00
2019-05-26T09:53:34.961Z,8748.00
2019-05-26T09:54:34.993Z,9848.00
2019-05-26T09:55:34.948Z,11036.00
2019-05-26T09:56:34.937Z,11684.00
2019-05-26T09:57:34.921Z,12112.00
2019-05-26T09:58:35.082Z,12456.00
2019-05-26T09:59:34.903Z,12796.00
2019-05-26T10:00:34.924Z,12212.00
2019-05-26T10:01:35.669Z,11816.00
2019-05-26T10:02:34.874Z,11348.00
2019-05-26T10:03:34.852Z,10780.00
2019-05-26T10:04:34.883Z,10332.00
2019-05-26T10:05:34.840Z,9724.00
2019-05-26T10:06:35.393Z,9184.00
2019-05-26T10:07:34.813Z,9076.00
2019-05-26T10:08:34.811Z,9368.00
2019-05-26T10:09:34.792Z,10152.00
2019-05-26T10:10:35.071Z,11332.00
2019-05-26T10:11:35.463Z,12448.00
2019-05-26T10:12:34.800Z,13256.00
2019-05-26T10:13:34.763Z,13156.00
2019-05-26T10:14:34.795Z,12244.00
2019-05-26T10:15:34.743Z,11340.00
2019-05-26T10:16:34.773Z,10628.00
2019-05-26T10:17:34.717Z,10364.00
2019-05-26T10:18:35.122Z,9660.00
2019-05-26T10:19:34.768Z,9100.00
2019-05-26T10:20:34.917Z,8884.00
2019-05-26T10:21:35.092Z,9004.00
2019-05-26T10:22:35.075Z,9256.00
2019-05-26T10:23:34.682Z,9784.00
2019-05-26T10:24:34.725Z,10584.00
2019-05-26T10:25:34.820Z,10904.00
2019-05-26T10:26:35.033Z,11416.00
2019-05-26T10:27:35.283Z,12052.00
2019-05-26T10:28:35.080Z,12320.00
2019-05-26T10:29:35.392Z,11920.00
2019-05-26T10:30:34.644Z,12116.00
2019-05-26T10:31:34.585Z,12304.00
2019-05-26T10:32:34.554Z,13316.00
2019-05-26T10:33:34.597Z,14096.00
2019-05-26T10:34:34.545Z,14148.00
2019-05-26T10:35:34.532Z,13368.00
2019-05-26T10:36:34.555Z,11964.00
2019-05-26T10:37:34.513Z,10928.00
2019-05-26T10:38:36.007Z,10772.00
2019-05-26T10:39:34.532Z,11432.00
2019-05-26T10:40:34.484Z,12404.00
2019-05-26T10:41:34.533Z,13256.00
2019-05-26T10:42:34.515Z,13296.00
2019-05-26T10:43:46.174Z,12552.00
2019-05-26T10:44:35.455Z,11876.00
2019-05-26T10:45:37.365Z,11576.00
2019-05-26T10:46:34.760Z,11980.00
2019-05-26T10:47:35.368Z,12244.00
2019-05-26T10:48:34.894Z,12140.00
2019-05-26T10:49:35.396Z,11788.00
2019-05-26T10:50:34.885Z,12148.00
2019-05-26T10:51:34.394Z,13820.00
2019-05-26T10:52:34.354Z,14920.00
2019-05-26T10:53:34.342Z,14300.00
2019-05-26T10:54:35.832Z,13600.00
2019-05-26T10:55:34.348Z,13196.00
2019-05-26T10:56:34.316Z,13512.00
2019-05-26T10:57:34.309Z,14888.00
2019-05-26T10:58:34.936Z,15900.00
2019-05-26T10:59:35.549Z,16632.00
2019-05-26T11:00:34.685Z,17984.00
2019-05-26T11:01:34.255Z,18528.00
2019-05-26T11:02:35.804Z,17152.00
2019-05-26T11:03:34.750Z,16972.00
2019-05-26T11:04:35.763Z,16784.00
2019-05-26T11:05:35.232Z,15244.00
2019-05-26T11:06:34.354Z,13576.00
2019-05-26T11:07:34.191Z,12500.00
2019-05-26T11:08:34.184Z,11828.00
2019-05-26T11:09:34.164Z,11816.00
2019-05-26T11:10:34.827Z,11412.00
2019-05-26T11:11:34.149Z,10100.00
2019-05-26T11:12:34.975Z,9388.00
2019-05-26T11:13:34.682Z,9476.00
2019-05-26T11:14:34.122Z,9916.00
2019-05-26T11:15:34.115Z,10552.00
2019-05-26T11:16:34.116Z,10664.00
2019-05-26T11:17:34.226Z,10528.00
2019-05-26T11:18:34.826Z,10684.00
2019-05-26T11:19:34.105Z,11424.00
2019-05-26T11:20:34.056Z,12024.00
2019-05-26T11:21:34.035Z,12180.00
2019-05-26T11:22:34.029Z,11828.00
2019-05-26T11:23:34.033Z,11788.00
2019-05-26T11:24:34.059Z,11788.00
2019-05-26T11:25:35.828Z,11532.00
2019-05-26T11:26:33.996Z,11664.00
2019-05-26T11:27:33.976Z,11912.00
2019-05-26T11:28:33.956Z,12280.00
2019-05-26T11:29:34.826Z,13076.00
2019-05-26T11:30:34.036Z,13872.00
2019-05-26T11:31:34.613Z,14200.00
2019-05-26T11:32:33.967Z,14508.00
2019-05-26T11:33:33.922Z,14328.00
2019-05-26T11:34:33.895Z,13692.00
2019-05-26T11:35:34.761Z,13292.00
2019-05-26T11:36:34.262Z,13088.00
2019-05-26T11:37:33.925Z,13060.00
2019-05-26T11:38:34.017Z,12916.00
2019-05-26T11:39:33.865Z,12672.00
2019-05-26T11:40:33.845Z,12392.00
2019-05-26T11:41:33.832Z,12548.00
2019-05-26T11:42:33.866Z,13220.00
2019-05-26T11:43:33.808Z,13040.00
2019-05-26T11:44:33.939Z,13000.00
2019-05-26T11:45:33.953Z,13256.00
2019-05-26T11:46:34.095Z,13644.00
2019-05-26T11:47:34.156Z,14148.00
2019-05-26T11:48:35.025Z,14556.00
2019-05-26T11:49:33.746Z,14692.00
2019-05-26T11:50:33.772Z,14580.00
2019-05-26T11:51:33.735Z,14888.00
2019-05-26T11:52:33.727Z,16604.00
2019-05-26T11:53:33.707Z,15548.00
2019-05-26T11:54:34.842Z,15428.00
2019-05-26T11:55:33.835Z,14892.00
2019-05-26T11:56:33.715Z,13272.00
2019-05-26T11:57:36.524Z,11952.00
2019-05-26T11:58:33.827Z,11772.00
2019-05-26T11:59:33.910Z,12036.00
2019-05-26T12:00:34.076Z,12180.00
2019-05-26T12:01:33.860Z,11848.00
2019-05-26T12:02:34.918Z,11888.00
2019-05-26T12:03:33.618Z,12200.00
2019-05-26T12:04:33.639Z,12364.00
2019-05-26T12:05:33.780Z,12744.00
2019-05-26T12:06:33.614Z,12360.00
2019-05-26T12:07:33.558Z,12408.00
2019-05-26T12:08:33.564Z,13940.00
2019-05-26T12:09:33.650Z,14860.00
2019-05-26T12:10:33.659Z,16524.00
2019-05-26T12:11:33.553Z,18304.00
2019-05-26T12:12:33.547Z,16500.00
2019-05-26T12:13:36.548Z,15400.00